Pagina principale
METAR-TAF:

METAR-TAF

Aeroporti :

Aeroporto di Magadino

Locarno, Svizzera

latitudine: 46-09-55N, longitudine: 8-52-40E, altezza: 198 m

Osservazione

Il bollettino è stato emesso 39 minuti fa, alle 13:50 UTC
Vento 5 kt da ovest, variando fra sud-ovest e nord-ovest
Temperature 28°C
Umidità 40%
Pressione 1012 hPa
Visibilità 10 km o più

METAR: LSZL 131350Z AUTO 28005KT 230V320 9999NDV NCD 28/13 Q1012 RMK

Ora: 16:29 (14:29 UTC)

Previsione

Il bollettino è stato emesso 3 ore e 4 minuti fa, alle 11:25 UTC
Previsione valida dal 13 alle 12 UTC al 13 alle 21 UTC
Vento 5 kt da ovest
Visibilità 10 km o più
Poco nuvoloso ad un'altezza di 7000 ft
Evoluzione graduale
dal 13 alle 14 UTC al 13 alle 17 UTC
Visibilità 10 km o più
nessuna nube inferiore a 1500 m e nessun cumulonembo

TAF: LSZL 131125Z 1312/1321 26005KT 9999 FEW070 BECMG 1314/1317 CAVOK

Osservazioni e previsioni meteorologiche di più di 4000 aeroporti (messaggi METAR e TAF).

Le stazioni disponibili sono rappresentate dai dischi gialli e rossi sulla carta.

Puntare il mouse per vedere il nome della stazione.

Clicca sopra per visualizzare le osservazioni e previsioni meteorologiche.

Per cambiare la mappa : fare clic sui pulsanti verdi con una croce nera per ingrandire, il pulsante verde con un trattino per diminuire, o sulla freccia verde per le mappe adiacenti.


METAR-TAF: